sensor_id;sensor_type;location;lat;lon;timestamp;pressure;altitude;pressure_sealevel;temperature;humidity
10716;BME280;5409;42.620;23.316;2022-11-15T00:00:31;92742.84;;;4.87;100.00
10716;BME280;5409;42.620;23.316;2022-11-15T00:02:57;92744.41;;;4.81;100.00
10716;BME280;5409;42.620;23.316;2022-11-15T00:05:24;92752.94;;;4.73;100.00
10716;BME280;5409;42.620;23.316;2022-11-15T00:07:51;92739.84;;;4.64;100.00
10716;BME280;5409;42.620;23.316;2022-11-15T00:10:18;92736.75;;;4.62;100.00
10716;BME280;5409;42.620;23.316;2022-11-15T00:12:44;92728.69;;;4.55;100.00
10716;BME280;5409;42.620;23.316;2022-11-15T00:15:11;92728.31;;;4.53;100.00
10716;BME280;5409;42.620;23.316;2022-11-15T00:17:39;92733.34;;;4.51;100.00
10716;BME280;5409;42.620;23.316;2022-11-15T00:20:07;92722.16;;;4.46;100.00
10716;BME280;5409;42.620;23.316;2022-11-15T00:22:34;92729.91;;;4.41;100.00
10716;BME280;5409;42.620;23.316;2022-11-15T00:25:01;92729.91;;;4.41;100.00
10716;BME280;5409;42.620;23.316;2022-11-15T00:27:28;92708.34;;;4.27;100.00
10716;BME280;5409;42.620;23.316;2022-11-15T00:29:55;92720.28;;;4.40;100.00
10716;BME280;5409;42.620;23.316;2022-11-15T00:32:22;92714.06;;;4.46;100.00
10716;BME280;5409;42.620;23.316;2022-11-15T00:34:50;92714.03;;;4.56;100.00
10716;BME280;5409;42.620;23.316;2022-11-15T00:37:16;92719.41;;;4.60;100.00
10716;BME280;5409;42.620;23.316;2022-11-15T00:39:44;92701.28;;;4.60;100.00
10716;BME280;5409;42.620;23.316;2022-11-15T00:42:11;92704.72;;;4.71;100.00
10716;BME280;5409;42.620;23.316;2022-11-15T00:44:38;92708.97;;;4.69;100.00
10716;BME280;5409;42.620;23.316;2022-11-15T00:47:04;92698.22;;;4.55;100.00
10716;BME280;5409;42.620;23.316;2022-11-15T00:49:31;92705.13;;;4.63;100.00
10716;BME280;5409;42.620;23.316;2022-11-15T00:51:59;92715.56;;;4.61;100.00
10716;BME280;5409;42.620;23.316;2022-11-15T00:54:26;92699.41;;;4.50;100.00
10716;BME280;5409;42.620;23.316;2022-11-15T00:56:53;92707.47;;;4.61;100.00
10716;BME280;5409;42.620;23.316;2022-11-15T00:59:19;92707.50;;;4.54;100.00
10716;BME280;5409;42.620;23.316;2022-11-15T01:01:46;92694.78;;;4.51;100.00
10716;BME280;5409;42.620;23.316;2022-11-15T01:04:13;92673.22;;;4.41;100.00
10716;BME280;5409;42.620;23.316;2022-11-15T01:06:40;92697.47;;;4.51;100.00
10716;BME280;5409;42.620;23.316;2022-11-15T01:09:08;92699.41;;;4.50;100.00
10716;BME280;5409;42.620;23.316;2022-11-15T01:11:35;92697.88;;;4.46;100.00
10716;BME280;5409;42.620;23.316;2022-11-15T01:14:01;92698.25;;;4.48;100.00
10716;BME280;5409;42.620;23.316;2022-11-15T01:16:28;92705.94;;;4.53;100.00
10716;BME280;5409;42.620;23.316;2022-11-15T01:18:55;92702.47;;;4.56;100.00
10716;BME280;5409;42.620;23.316;2022-11-15T01:21:22;92697.50;;;4.47;100.00
10716;BME280;5409;42.620;23.316;2022-11-15T01:23:52;92699.78;;;4.49;100.00
10716;BME280;5409;42.620;23.316;2022-11-15T01:26:20;92686.66;;;4.51;100.00
10716;BME280;5409;42.620;23.316;2022-11-15T01:28:48;92692.44;;;4.53;100.00
10716;BME280;5409;42.620;23.316;2022-11-15T01:31:17;92676.34;;;4.29;100.00
10716;BME280;5409;42.620;23.316;2022-11-15T01:33:44;92687.84;;;4.53;100.00
10716;BME280;5409;42.620;23.316;2022-11-15T01:36:13;92689.41;;;4.44;100.00
10716;BME280;5409;42.620;23.316;2022-11-15T01:38:40;92682.84;;;4.48;100.00
10716;BME280;5409;42.620;23.316;2022-11-15T01:41:14;92674.03;;;4.34;100.00
10716;BME280;5409;42.620;23.316;2022-11-15T01:43:43;92694.78;;;4.44;100.00
10716;BME280;5409;42.620;23.316;2022-11-15T01:46:22;92665.97;;;4.20;100.00
10716;BME280;5409;42.620;23.316;2022-11-15T01:48:51;92688.25;;;4.38;100.00
10716;BME280;5409;42.620;23.316;2022-11-15T01:51:21;92688.69;;;4.33;100.00
10716;BME280;5409;42.620;23.316;2022-11-15T01:53:52;92677.50;;;4.28;100.00
10716;BME280;5409;42.620;23.316;2022-11-15T01:56:25;92686.00;;;4.33;100.00
10716;BME280;5409;42.620;23.316;2022-11-15T01:58:55;92684.06;;;4.30;100.00
10716;BME280;5409;42.620;23.316;2022-11-15T02:01:24;92682.16;;;4.27;100.00
10716;BME280;5409;42.620;23.316;2022-11-15T02:03:54;92677.13;;;4.26;100.00
10716;BME280;5409;42.620;23.316;2022-11-15T02:06:23;92689.47;;;4.30;100.00
10716;BME280;5409;42.620;23.316;2022-11-15T02:08:50;92671.41;;;4.17;100.00
10716;BME280;5409;42.620;23.316;2022-11-15T02:11:17;92686.75;;;4.27;100.00
10716;BME280;5409;42.620;23.316;2022-11-15T02:13:44;92680.97;;;4.25;100.00
10716;BME280;5409;42.620;23.316;2022-11-15T02:16:19;92680.59;;;4.23;100.00
10716;BME280;5409;42.620;23.316;2022-11-15T02:18:54;92676.00;;;4.20;100.00
10716;BME280;5409;42.620;23.316;2022-11-15T02:21:27;92672.94;;;4.14;100.00
10716;BME280;5409;42.620;23.316;2022-11-15T02:24:27;92676.81;;;4.10;100.00
10716;BME280;5409;42.620;23.316;2022-11-15T02:27:30;92682.59;;;4.05;100.00
10716;BME280;5409;42.620;23.316;2022-11-15T02:30:23;92672.59;;;3.98;100.00
10716;BME280;5409;42.620;23.316;2022-11-15T02:32:52;92683.78;;;3.97;100.00
10716;BME280;5409;42.620;23.316;2022-11-15T02:35:29;92656.81;;;3.90;100.00
10716;BME280;5409;42.620;23.316;2022-11-15T02:38:05;92669.88;;;4.02;100.00
10716;BME280;5409;42.620;23.316;2022-11-15T02:40:38;92663.72;;;3.98;100.00
10716;BME280;5409;42.620;23.316;2022-11-15T02:43:08;92659.13;;;3.88;100.00
10716;BME280;5409;42.620;23.316;2022-11-15T02:46:06;92648.75;;;3.83;100.00
10716;BME280;5409;42.620;23.316;2022-11-15T02:48:35;92669.50;;;4.00;100.00
10716;BME280;5409;42.620;23.316;2022-11-15T02:51:02;92669.91;;;3.98;100.00
10716;BME280;5409;42.620;23.316;2022-11-15T02:53:29;92667.97;;;3.99;100.00
10716;BME280;5409;42.620;23.316;2022-11-15T02:55:56;92657.59;;;3.97;100.00
10716;BME280;5409;42.620;23.316;2022-11-15T02:58:53;92664.50;;;4.02;100.00
10716;BME280;5409;42.620;23.316;2022-11-15T03:01:35;92665.25;;;4.02;100.00
10716;BME280;5409;42.620;23.316;2022-11-15T03:04:13;92669.91;;;3.95;100.00
10716;BME280;5409;42.620;23.316;2022-11-15T03:06:51;92675.31;;;3.88;100.00
10716;BME280;5409;42.620;23.316;2022-11-15T03:09:27;92678.78;;;3.81;100.00
10716;BME280;5409;42.620;23.316;2022-11-15T03:12:02;92663.78;;;3.73;100.00
10716;BME280;5409;42.620;23.316;2022-11-15T03:14:34;92669.97;;;3.74;100.00
10716;BME280;5409;42.620;23.316;2022-11-15T03:17:11;92669.94;;;3.70;100.00
10716;BME280;5409;42.620;23.316;2022-11-15T03:19:44;92664.56;;;3.67;100.00
10716;BME280;5409;42.620;23.316;2022-11-15T03:22:13;92657.66;;;3.66;100.00
10716;BME280;5409;42.620;23.316;2022-11-15T03:24:43;92656.88;;;3.76;100.00
10716;BME280;5409;42.620;23.316;2022-11-15T03:27:13;92654.53;;;3.81;100.00
10716;BME280;5409;42.620;23.316;2022-11-15T03:29:45;92653.78;;;3.74;100.00
10716;BME280;5409;42.620;23.316;2022-11-15T03:32:16;92656.88;;;3.76;100.00
10716;BME280;5409;42.620;23.316;2022-11-15T03:34:47;92653.75;;;3.77;100.00
10716;BME280;5409;42.620;23.316;2022-11-15T03:37:17;92656.84;;;3.79;100.00
10716;BME280;5409;42.620;23.316;2022-11-15T03:39:47;92642.22;;;3.77;100.00
10716;BME280;5409;42.620;23.316;2022-11-15T03:42:19;92646.84;;;3.76;100.00
10716;BME280;5409;42.620;23.316;2022-11-15T03:44:52;92630.66;;;3.80;100.00
10716;BME280;5409;42.620;23.316;2022-11-15T03:47:26;92631.41;;;3.80;100.00
10716;BME280;5409;42.620;23.316;2022-11-15T03:49:59;92617.59;;;3.68;100.00
10716;BME280;5409;42.620;23.316;2022-11-15T03:52:31;92633.75;;;3.78;100.00
10716;BME280;5409;42.620;23.316;2022-11-15T03:55:01;92617.59;;;3.68;100.00
10716;BME280;5409;42.620;23.316;2022-11-15T03:57:28;92609.09;;;3.69;100.00
10716;BME280;5409;42.620;23.316;2022-11-15T03:59:55;92628.75;;;3.77;100.00
10716;BME280;5409;42.620;23.316;2022-11-15T04:02:23;92611.44;;;3.64;100.00
10716;BME280;5409;42.620;23.316;2022-11-15T04:04:50;92616.81;;;3.78;100.00
10716;BME280;5409;42.620;23.316;2022-11-15T04:07:16;92615.28;;;3.77;100.00
10716;BME280;5409;42.620;23.316;2022-11-15T04:09:43;92622.97;;;3.82;100.00
10716;BME280;5409;42.620;23.316;2022-11-15T04:12:27;92614.88;;;3.82;100.00
10716;BME280;5409;42.620;23.316;2022-11-15T04:14:59;92617.94;;;3.80;100.00
10716;BME280;5409;42.620;23.316;2022-11-15T04:17:38;92622.16;;;3.85;100.00
10716;BME280;5409;42.620;23.316;2022-11-15T04:20:08;92612.13;;;3.89;100.00
10716;BME280;5409;42.620;23.316;2022-11-15T04:22:53;92606.38;;;3.90;100.00
10716;BME280;5409;42.620;23.316;2022-11-15T04:25:38;92599.84;;;3.84;100.00
10716;BME280;5409;42.620;23.316;2022-11-15T04:28:05;92608.69;;;3.88;100.00
10716;BME280;5409;42.620;23.316;2022-11-15T04:30:32;92601.38;;;3.85;100.00
10716;BME280;5409;42.620;23.316;2022-11-15T04:33:00;92603.72;;;3.80;100.00
10716;BME280;5409;42.620;23.316;2022-11-15T04:35:27;92606.41;;;3.73;100.00
10716;BME280;5409;42.620;23.316;2022-11-15T04:37:56;92606.78;;;3.71;100.00
10716;BME280;5409;42.620;23.316;2022-11-15T04:40:23;92610.28;;;3.65;100.00
10716;BME280;5409;42.620;23.316;2022-11-15T04:42:49;92600.28;;;3.62;100.00
10716;BME280;5409;42.620;23.316;2022-11-15T04:45:16;92597.59;;;3.55;100.00
10716;BME280;5409;42.620;23.316;2022-11-15T04:47:43;92606.84;;;3.50;100.00
10716;BME280;5409;42.620;23.316;2022-11-15T04:50:13;92612.25;;;3.40;100.00
10716;BME280;5409;42.620;23.316;2022-11-15T04:52:40;92613.81;;;3.34;100.00
10716;BME280;5409;42.620;23.316;2022-11-15T04:55:08;92608.81;;;3.22;100.00
10716;BME280;5409;42.620;23.316;2022-11-15T04:57:34;92613.41;;;3.18;100.00
10716;BME280;5409;42.620;23.316;2022-11-15T05:00:03;92615.75;;;3.13;100.00
10716;BME280;5409;42.620;23.316;2022-11-15T05:02:30;92600.38;;;3.06;100.00
10716;BME280;5409;42.620;23.316;2022-11-15T05:05:18;92606.13;;;3.08;100.00
10716;BME280;5409;42.620;23.316;2022-11-15T05:07:44;92601.50;;;3.09;100.00
10716;BME280;5409;42.620;23.316;2022-11-15T05:10:11;92596.91;;;3.13;100.00
10716;BME280;5409;42.620;23.316;2022-11-15T05:12:37;92602.66;;;3.15;100.00
10716;BME280;5409;42.620;23.316;2022-11-15T05:15:05;92600.34;;;3.20;100.00
10716;BME280;5409;42.620;23.316;2022-11-15T05:17:32;92586.09;;;3.16;100.00
10716;BME280;5409;42.620;23.316;2022-11-15T05:19:59;92609.97;;;3.21;100.00
10716;BME280;5409;42.620;23.316;2022-11-15T05:22:27;92616.50;;;3.17;100.00
10716;BME280;5409;42.620;23.316;2022-11-15T05:24:54;92606.88;;;3.02;100.00
10716;BME280;5409;42.620;23.316;2022-11-15T05:27:21;92611.53;;;3.01;100.00
10716;BME280;5409;42.620;23.316;2022-11-15T05:29:47;92600.75;;;2.94;100.00
10716;BME280;5409;42.620;23.316;2022-11-15T05:32:14;92606.91;;;2.88;100.00
10716;BME280;5409;42.620;23.316;2022-11-15T05:34:43;92614.19;;;2.80;100.00
10716;BME280;5409;42.620;23.316;2022-11-15T05:37:10;92605.75;;;2.71;100.00
10716;BME280;5409;42.620;23.316;2022-11-15T05:39:38;92606.88;;;2.63;100.00
10716;BME280;5409;42.620;23.316;2022-11-15T05:42:07;92607.25;;;2.51;100.00
10716;BME280;5409;42.620;23.316;2022-11-15T05:44:36;92609.56;;;2.56;100.00
10716;BME280;5409;42.620;23.316;2022-11-15T05:47:05;92601.47;;;2.49;100.00
10716;BME280;5409;42.620;23.316;2022-11-15T05:49:37;92610.31;;;2.53;100.00
10716;BME280;5409;42.620;23.316;2022-11-15T05:52:06;92606.84;;;2.49;100.00
10716;BME280;5409;42.620;23.316;2022-11-15T05:54:35;92613.41;;;2.52;100.00
10716;BME280;5409;42.620;23.316;2022-11-15T05:57:04;92604.56;;;2.58;100.00
10716;BME280;5409;42.620;23.316;2022-11-15T05:59:32;92603.44;;;2.66;100.00
10716;BME280;5409;42.620;23.316;2022-11-15T06:02:00;92603.06;;;2.71;100.00
10716;BME280;5409;42.620;23.316;2022-11-15T06:04:27;92599.19;;;2.79;100.00
10716;BME280;5409;42.620;23.316;2022-11-15T06:06:53;92608.03;;;2.83;100.00
10716;BME280;5409;42.620;23.316;2022-11-15T06:09:20;92601.13;;;2.82;100.00
10716;BME280;5409;42.620;23.316;2022-11-15T06:11:47;92613.44;;;2.87;100.00
10716;BME280;5409;42.620;23.316;2022-11-15T06:14:16;92618.81;;;2.87;100.00
10716;BME280;5409;42.620;23.316;2022-11-15T06:16:43;92625.34;;;2.89;100.00
10716;BME280;5409;42.620;23.316;2022-11-15T06:19:10;92610.75;;;2.80;100.00
10716;BME280;5409;42.620;23.316;2022-11-15T06:21:37;92622.66;;;2.89;100.00
10716;BME280;5409;42.620;23.316;2022-11-15T06:24:04;92632.28;;;2.94;100.00
10716;BME280;5409;42.620;23.316;2022-11-15T06:26:31;92620.72;;;2.97;100.00
10716;BME280;5409;42.620;23.316;2022-11-15T06:28:58;92623.81;;;2.99;100.00
10716;BME280;5409;42.620;23.316;2022-11-15T06:31:26;92617.28;;;3.03;100.00
10716;BME280;5409;42.620;23.316;2022-11-15T06:33:53;92611.53;;;3.01;100.00
10716;BME280;5409;42.620;23.316;2022-11-15T06:36:19;92611.13;;;3.10;100.00
10716;BME280;5409;42.620;23.316;2022-11-15T06:38:46;92608.81;;;3.12;100.00
10716;BME280;5409;42.620;23.316;2022-11-15T06:41:13;92611.88;;;3.17;100.00
10716;BME280;5409;42.620;23.316;2022-11-15T06:43:42;92607.66;;;3.16;100.00
10716;BME280;5409;42.620;23.316;2022-11-15T06:46:09;92603.81;;;3.21;100.00
10716;BME280;5409;42.620;23.316;2022-11-15T06:48:37;92606.50;;;3.28;100.00
10716;BME280;5409;42.620;23.316;2022-11-15T06:51:04;92611.13;;;3.34;100.00
10716;BME280;5409;42.620;23.316;2022-11-15T06:53:32;92606.88;;;3.33;100.00
10716;BME280;5409;42.620;23.316;2022-11-15T06:55:59;92586.47;;;3.29;100.00
10716;BME280;5409;42.620;23.316;2022-11-15T06:58:27;92609.94;;;3.42;100.00
10716;BME280;5409;42.620;23.316;2022-11-15T07:00:53;92615.31;;;3.45;100.00
10716;BME280;5409;42.620;23.316;2022-11-15T07:03:20;92611.09;;;3.44;100.00
10716;BME280;5409;42.620;23.316;2022-11-15T07:05:52;92611.09;;;3.51;100.00
10716;BME280;5409;42.620;23.316;2022-11-15T07:08:20;92611.06;;;3.58;100.00
10716;BME280;5409;42.620;23.316;2022-11-15T07:10:46;92603.75;;;3.62;100.00
10716;BME280;5409;42.620;23.316;2022-11-15T07:13:13;92602.59;;;3.63;100.00
10716;BME280;5409;42.620;23.316;2022-11-15T07:15:40;92600.25;;;3.65;100.00
10716;BME280;5409;42.620;23.316;2022-11-15T07:18:07;92593.72;;;3.70;100.00
10716;BME280;5409;42.620;23.316;2022-11-15T07:20:34;92595.19;;;3.88;100.00
10716;BME280;5409;42.620;23.316;2022-11-15T07:23:02;92594.81;;;3.93;100.00
10716;BME280;5409;42.620;23.316;2022-11-15T07:25:29;92589.00;;;3.95;100.00
10716;BME280;5409;42.620;23.316;2022-11-15T07:27:57;92595.13;;;4.06;100.00
10716;BME280;5409;42.620;23.316;2022-11-15T07:30:24;92580.09;;;4.01;100.00
10716;BME280;5409;42.620;23.316;2022-11-15T07:32:52;92605.06;;;4.23;100.00
10716;BME280;5409;42.620;23.316;2022-11-15T07:35:19;92593.94;;;4.14;100.00
10716;BME280;5409;42.620;23.316;2022-11-15T07:37:53;92612.34;;;4.33;100.00
10716;BME280;5409;42.620;23.316;2022-11-15T07:40:21;92567.28;;;4.26;100.00
10716;BME280;5409;42.620;23.316;2022-11-15T07:42:48;92603.66;;;4.72;100.00
10716;BME280;5409;42.620;23.316;2022-11-15T07:45:23;92602.28;;;5.01;100.00
10716;BME280;5409;42.620;23.316;2022-11-15T07:47:52;92605.63;;;5.19;100.00
10716;BME280;5409;42.620;23.316;2022-11-15T07:50:19;92603.59;;;5.30;100.00
10716;BME280;5409;42.620;23.316;2022-11-15T07:52:46;92600.44;;;5.35;100.00
10716;BME280;5409;42.620;23.316;2022-11-15T07:55:13;92607.25;;;5.54;100.00
10716;BME280;5409;42.620;23.316;2022-11-15T07:57:41;92610.66;;;5.61;100.00
10716;BME280;5409;42.620;23.316;2022-11-15T08:00:08;92611.00;;;5.66;100.00
10716;BME280;5409;42.620;23.316;2022-11-15T08:02:35;92609.78;;;5.71;100.00
10716;BME280;5409;42.620;23.316;2022-11-15T08:05:02;92613.28;;;5.68;100.00
10716;BME280;5409;42.620;23.316;2022-11-15T08:07:30;92604.03;;;5.65;100.00
10716;BME280;5409;42.620;23.316;2022-11-15T08:09:57;92600.47;;;5.79;100.00
10716;BME280;5409;42.620;23.316;2022-11-15T08:12:24;92598.41;;;5.90;100.00
10716;BME280;5409;42.620;23.316;2022-11-15T08:14:52;92597.44;;;6.07;100.00
10716;BME280;5409;42.620;23.316;2022-11-15T08:17:19;92596.56;;;6.17;100.00
10716;BME280;5409;42.620;23.316;2022-11-15T08:19:45;92597.34;;;6.17;100.00
10716;BME280;5409;42.620;23.316;2022-11-15T08:22:12;92599.91;;;6.28;100.00
10716;BME280;5409;42.620;23.316;2022-11-15T08:24:39;92600.09;;;6.44;100.00
10716;BME280;5409;42.620;23.316;2022-11-15T08:27:05;92598.91;;;6.45;100.00
10716;BME280;5409;42.620;23.316;2022-11-15T08:29:40;92606.59;;;6.50;100.00
10716;BME280;5409;42.620;23.316;2022-11-15T08:32:08;92599.78;;;6.38;100.00
10716;BME280;5409;42.620;23.316;2022-11-15T08:34:35;92601.69;;;6.38;100.00
10716;BME280;5409;42.620;23.316;2022-11-15T08:37:02;92603.34;;;6.32;100.00
10716;BME280;5409;42.620;23.316;2022-11-15T08:39:29;92600.66;;;6.28;100.00
10716;BME280;5409;42.620;23.316;2022-11-15T08:41:56;92597.94;;;6.32;100.00
10716;BME280;5409;42.620;23.316;2022-11-15T08:44:22;92598.75;;;6.29;100.00
10716;BME280;5409;42.620;23.316;2022-11-15T08:46:50;92587.78;;;6.39;100.00
10716;BME280;5409;42.620;23.316;2022-11-15T08:49:18;92587.25;;;6.51;100.00
10716;BME280;5409;42.620;23.316;2022-11-15T08:51:44;92579.00;;;6.58;100.00
10716;BME280;5409;42.620;23.316;2022-11-15T08:54:11;92575.59;;;6.80;100.00
10716;BME280;5409;42.620;23.316;2022-11-15T08:56:38;92583.81;;;7.00;100.00
10716;BME280;5409;42.620;23.316;2022-11-15T08:59:04;92574.34;;;7.11;100.00
10716;BME280;5409;42.620;23.316;2022-11-15T09:01:32;92575.78;;;7.19;100.00
10716;BME280;5409;42.620;23.316;2022-11-15T09:03:59;92574.97;;;6.96;100.00
10716;BME280;5409;42.620;23.316;2022-11-15T09:06:27;92579.13;;;7.04;100.00
10716;BME280;5409;42.620;23.316;2022-11-15T09:08:54;92571.03;;;7.27;100.00
10716;BME280;5409;42.620;23.316;2022-11-15T09:11:20;92567.06;;;7.31;100.00
10716;BME280;5409;42.620;23.316;2022-11-15T09:13:48;92564.25;;;7.38;100.00
10716;BME280;5409;42.620;23.316;2022-11-15T09:16:15;92564.34;;;7.54;100.00
10716;BME280;5409;42.620;23.316;2022-11-15T09:18:42;92558.03;;;7.61;100.00
10716;BME280;5409;42.620;23.316;2022-11-15T09:21:09;92558.41;;;7.40;100.00
10716;BME280;5409;42.620;23.316;2022-11-15T09:23:37;92556.50;;;7.37;100.00
10716;BME280;5409;42.620;23.316;2022-11-15T09:26:05;92546.00;;;7.39;100.00
10716;BME280;5409;42.620;23.316;2022-11-15T09:28:32;92548.25;;;7.44;100.00
10716;BME280;5409;42.620;23.316;2022-11-15T09:31:00;92545.44;;;7.51;100.00
10716;BME280;5409;42.620;23.316;2022-11-15T09:33:28;92549.91;;;7.61;100.00
10716;BME280;5409;42.620;23.316;2022-11-15T09:35:59;92544.25;;;7.52;100.00
10716;BME280;5409;42.620;23.316;2022-11-15T09:38:26;92552.06;;;7.69;100.00
10716;BME280;5409;42.620;23.316;2022-11-15T09:41:09;92539.88;;;7.58;100.00
10716;BME280;5409;42.620;23.316;2022-11-15T09:43:49;92525.81;;;7.43;100.00
10716;BME280;5409;42.620;23.316;2022-11-15T09:46:28;92531.53;;;7.68;100.00
10716;BME280;5409;42.620;23.316;2022-11-15T09:48:59;92508.38;;;7.64;100.00
10716;BME280;5409;42.620;23.316;2022-11-15T09:51:30;92525.91;;;7.79;100.00
10716;BME280;5409;42.620;23.316;2022-11-15T09:54:08;92527.53;;;7.76;100.00
10716;BME280;5409;42.620;23.316;2022-11-15T09:56:41;92534.34;;;7.84;100.00
10716;BME280;5409;42.620;23.316;2022-11-15T10:02:08;92526.69;;;7.79;100.00
10716;BME280;5409;42.620;23.316;2022-11-15T10:04:39;92518.97;;;7.78;100.00
10716;BME280;5409;42.620;23.316;2022-11-15T10:07:13;92513.97;;;7.95;100.00
10716;BME280;5409;42.620;23.316;2022-11-15T10:09:45;92514.66;;;7.99;100.00
10716;BME280;5409;42.620;23.316;2022-11-15T10:12:15;92491.56;;;7.91;100.00
10716;BME280;5409;42.620;23.316;2022-11-15T10:14:43;92502.53;;;8.04;100.00
10716;BME280;5409;42.620;23.316;2022-11-15T10:17:30;92500.09;;;8.09;100.00
10716;BME280;5409;42.620;23.316;2022-11-15T10:20:10;92495.00;;;8.11;100.00
10716;BME280;5409;42.620;23.316;2022-11-15T10:22:40;92487.19;;;8.17;100.00
10716;BME280;5409;42.620;23.316;2022-11-15T10:25:20;92479.75;;;10.09;100.00
10716;BME280;5409;42.620;23.316;2022-11-15T10:27:54;92513.53;;;11.64;100.00
10716;BME280;5409;42.620;23.316;2022-11-15T10:30:22;92518.34;;;12.49;100.00
10716;BME280;5409;42.620;23.316;2022-11-15T10:32:49;92517.72;;;13.27;97.70
10716;BME280;5409;42.620;23.316;2022-11-15T10:35:19;92514.59;;;14.22;90.82
10716;BME280;5409;42.620;23.316;2022-11-15T10:37:46;92511.63;;;14.97;84.58
10716;BME280;5409;42.620;23.316;2022-11-15T10:40:20;92495.06;;;15.24;81.53
10716;BME280;5409;42.620;23.316;2022-11-15T10:42:47;92486.31;;;15.99;78.11
10716;BME280;5409;42.620;23.316;2022-11-15T10:45:27;92489.19;;;16.80;74.01
10716;BME280;5409;42.620;23.316;2022-11-15T10:48:23;92484.31;;;17.04;70.54
10716;BME280;5409;42.620;23.316;2022-11-15T10:50:51;92477.66;;;16.53;71.57
10716;BME280;5409;42.620;23.316;2022-11-15T10:53:23;92474.72;;;16.18;72.94
10716;BME280;5409;42.620;23.316;2022-11-15T10:55:52;92479.81;;;16.25;72.84
10716;BME280;5409;42.620;23.316;2022-11-15T10:58:32;92475.59;;;15.78;75.20
10716;BME280;5409;42.620;23.316;2022-11-15T11:01:12;92467.00;;;15.20;77.12
10716;BME280;5409;42.620;23.316;2022-11-15T11:03:39;92461.44;;;14.96;79.13
10716;BME280;5409;42.620;23.316;2022-11-15T11:06:09;92459.47;;;15.38;77.50
10716;BME280;5409;42.620;23.316;2022-11-15T11:08:37;92452.88;;;15.68;76.29
10716;BME280;5409;42.620;23.316;2022-11-15T11:11:05;92452.25;;;15.97;75.15
10716;BME280;5409;42.620;23.316;2022-11-15T11:13:34;92444.03;;;16.34;72.40
10716;BME280;5409;42.620;23.316;2022-11-15T11:16:31;92438.75;;;16.74;70.85
10716;BME280;5409;42.620;23.316;2022-11-15T11:19:04;92441.69;;;17.00;68.67
10716;BME280;5409;42.620;23.316;2022-11-15T11:21:43;92437.59;;;16.66;69.68
10716;BME280;5409;42.620;23.316;2022-11-15T11:24:18;92447.94;;;17.00;68.33
10716;BME280;5409;42.620;23.316;2022-11-15T11:27:03;92439.13;;;17.11;66.89
10716;BME280;5409;42.620;23.316;2022-11-15T11:29:45;92426.59;;;16.95;68.57
10716;BME280;5409;42.620;23.316;2022-11-15T11:32:30;92418.25;;;16.90;67.67
10716;BME280;5409;42.620;23.316;2022-11-15T11:35:08;92411.16;;;17.17;67.00
10716;BME280;5409;42.620;23.316;2022-11-15T11:37:41;92394.34;;;16.67;68.29
10716;BME280;5409;42.620;23.316;2022-11-15T11:40:22;92408.38;;;16.83;67.95
10716;BME280;5409;42.620;23.316;2022-11-15T11:42:55;92398.88;;;16.70;67.68
10716;BME280;5409;42.620;23.316;2022-11-15T11:45:39;92401.41;;;15.92;70.80
10716;BME280;5409;42.620;23.316;2022-11-15T11:48:13;92393.25;;;16.35;69.96
10716;BME280;5409;42.620;23.316;2022-11-15T11:50:41;92391.16;;;15.93;71.00
10716;BME280;5409;42.620;23.316;2022-11-15T11:53:12;92382.75;;;15.26;73.71
10716;BME280;5409;42.620;23.316;2022-11-15T11:55:43;92381.09;;;14.87;75.98
10716;BME280;5409;42.620;23.316;2022-11-15T11:58:14;92385.47;;;14.61;78.82
10716;BME280;5409;42.620;23.316;2022-11-15T12:00:46;92373.72;;;14.70;77.98
10716;BME280;5409;42.620;23.316;2022-11-15T12:03:20;92372.66;;;14.99;76.04
10716;BME280;5409;42.620;23.316;2022-11-15T12:05:54;92360.38;;;14.86;76.85
10716;BME280;5409;42.620;23.316;2022-11-15T12:08:32;92353.56;;;14.31;79.70
10716;BME280;5409;42.620;23.316;2022-11-15T12:11:08;92352.25;;;13.82;81.41
10716;BME280;5409;42.620;23.316;2022-11-15T12:13:36;92348.00;;;13.45;85.25
10716;BME280;5409;42.620;23.316;2022-11-15T12:16:10;92344.66;;;13.32;85.48
10716;BME280;5409;42.620;23.316;2022-11-15T12:18:42;92350.59;;;12.73;89.65
10716;BME280;5409;42.620;23.316;2022-11-15T12:21:15;92341.41;;;12.28;93.21
10716;BME280;5409;42.620;23.316;2022-11-15T12:23:46;92324.38;;;11.63;99.10
10716;BME280;5409;42.620;23.316;2022-11-15T12:26:18;92327.06;;;11.42;100.00
10716;BME280;5409;42.620;23.316;2022-11-15T12:28:50;92326.94;;;11.24;100.00
10716;BME280;5409;42.620;23.316;2022-11-15T12:31:22;92320.97;;;11.04;100.00
10716;BME280;5409;42.620;23.316;2022-11-15T12:33:55;92322.78;;;10.86;100.00
10716;BME280;5409;42.620;23.316;2022-11-15T12:36:38;92316.91;;;10.75;100.00
10716;BME280;5409;42.620;23.316;2022-11-15T12:39:06;92317.09;;;10.46;100.00
10716;BME280;5409;42.620;23.316;2022-11-15T12:41:35;92311.88;;;10.27;100.00
10716;BME280;5409;42.620;23.316;2022-11-15T12:44:03;92301.94;;;10.08;100.00
10716;BME280;5409;42.620;23.316;2022-11-15T12:46:59;92306.09;;;10.00;100.00
10716;BME280;5409;42.620;23.316;2022-11-15T12:49:45;92299.72;;;9.91;100.00
10716;BME280;5409;42.620;23.316;2022-11-15T12:52:13;92299.94;;;9.84;100.00
10716;BME280;5409;42.620;23.316;2022-11-15T12:54:59;92297.66;;;9.82;100.00
10716;BME280;5409;42.620;23.316;2022-11-15T12:57:45;92294.16;;;9.69;100.00
10716;BME280;5409;42.620;23.316;2022-11-15T13:00:42;92291.41;;;9.57;100.00
10716;BME280;5409;42.620;23.316;2022-11-15T13:03:17;92283.91;;;9.48;100.00
10716;BME280;5409;42.620;23.316;2022-11-15T13:05:59;92283.88;;;9.36;100.00
10716;BME280;5409;42.620;23.316;2022-11-15T13:08:39;92290.25;;;9.29;100.00
10716;BME280;5409;42.620;23.316;2022-11-15T13:14:45;92277.22;;;8.96;100.00
10716;BME280;5409;42.620;23.316;2022-11-15T13:17:27;92278.84;;;8.94;100.00
10716;BME280;5409;42.620;23.316;2022-11-15T13:22:46;92272.59;;;8.81;100.00
10716;BME280;5409;42.620;23.316;2022-11-15T13:25:38;92270.28;;;8.79;100.00
10716;BME280;5409;42.620;23.316;2022-11-15T13:28:11;92266.91;;;8.75;100.00